sensor_id;sensor_type;location;lat;lon;timestamp;P1;durP1;ratioP1;P2;durP2;ratioP2
52170;SDS011;38689;47.552;18.820;2023-05-27T00:00:35;16.00;;;11.63;;
52170;SDS011;38689;47.552;18.820;2023-05-27T00:03:01;15.30;;;11.55;;
52170;SDS011;38689;47.552;18.820;2023-05-27T00:05:27;16.58;;;12.20;;
52170;SDS011;38689;47.552;18.820;2023-05-27T00:07:53;15.45;;;11.88;;
52170;SDS011;38689;47.552;18.820;2023-05-27T00:10:19;16.08;;;11.88;;
52170;SDS011;38689;47.552;18.820;2023-05-27T00:12:45;18.37;;;12.50;;
52170;SDS011;38689;47.552;18.820;2023-05-27T00:15:11;16.17;;;11.70;;
52170;SDS011;38689;47.552;18.820;2023-05-27T00:17:38;18.12;;;12.27;;
52170;SDS011;38689;47.552;18.820;2023-05-27T00:20:05;18.05;;;12.95;;
52170;SDS011;38689;47.552;18.820;2023-05-27T00:22:33;17.23;;;12.15;;
52170;SDS011;38689;47.552;18.820;2023-05-27T00:25:02;18.23;;;12.68;;
52170;SDS011;38689;47.552;18.820;2023-05-27T00:27:29;19.10;;;12.98;;
52170;SDS011;38689;47.552;18.820;2023-05-27T00:29:55;18.35;;;12.80;;
52170;SDS011;38689;47.552;18.820;2023-05-27T00:32:21;18.85;;;12.70;;
52170;SDS011;38689;47.552;18.820;2023-05-27T00:34:47;19.77;;;12.82;;
52170;SDS011;38689;47.552;18.820;2023-05-27T00:37:13;20.73;;;13.23;;
52170;SDS011;38689;47.552;18.820;2023-05-27T00:39:40;18.40;;;12.98;;
52170;SDS011;38689;47.552;18.820;2023-05-27T00:42:06;20.00;;;13.15;;
52170;SDS011;38689;47.552;18.820;2023-05-27T00:44:33;17.17;;;12.65;;
52170;SDS011;38689;47.552;18.820;2023-05-27T00:46:59;17.75;;;12.90;;
52170;SDS011;38689;47.552;18.820;2023-05-27T00:49:25;16.50;;;12.40;;
52170;SDS011;38689;47.552;18.820;2023-05-27T00:51:52;18.83;;;13.02;;
52170;SDS011;38689;47.552;18.820;2023-05-27T00:54:18;18.30;;;12.75;;
52170;SDS011;38689;47.552;18.820;2023-05-27T00:56:44;16.65;;;12.48;;
52170;SDS011;38689;47.552;18.820;2023-05-27T00:59:10;16.52;;;12.50;;
52170;SDS011;38689;47.552;18.820;2023-05-27T01:01:37;17.42;;;12.57;;
52170;SDS011;38689;47.552;18.820;2023-05-27T01:04:04;17.40;;;12.35;;
52170;SDS011;38689;47.552;18.820;2023-05-27T01:12:46;17.27;;;11.90;;
52170;SDS011;38689;47.552;18.820;2023-05-27T01:15:16;18.48;;;12.30;;
52170;SDS011;38689;47.552;18.820;2023-05-27T01:17:43;16.65;;;11.52;;
52170;SDS011;38689;47.552;18.820;2023-05-27T01:20:11;15.80;;;11.77;;
52170;SDS011;38689;47.552;18.820;2023-05-27T01:22:39;15.35;;;11.45;;
52170;SDS011;38689;47.552;18.820;2023-05-27T01:25:07;15.90;;;11.40;;
52170;SDS011;38689;47.552;18.820;2023-05-27T01:27:34;16.42;;;11.12;;
52170;SDS011;38689;47.552;18.820;2023-05-27T01:30:00;15.65;;;11.63;;
52170;SDS011;38689;47.552;18.820;2023-05-27T01:32:32;14.77;;;11.35;;
52170;SDS011;38689;47.552;18.820;2023-05-27T01:35:07;16.65;;;11.60;;
52170;SDS011;38689;47.552;18.820;2023-05-27T01:37:37;14.27;;;10.27;;
52170;SDS011;38689;47.552;18.820;2023-05-27T01:40:07;14.02;;;10.73;;
52170;SDS011;38689;47.552;18.820;2023-05-27T01:42:34;15.85;;;11.65;;
52170;SDS011;38689;47.552;18.820;2023-05-27T01:45:02;16.27;;;11.40;;
52170;SDS011;38689;47.552;18.820;2023-05-27T01:47:32;16.30;;;11.32;;
52170;SDS011;38689;47.552;18.820;2023-05-27T01:49:59;15.10;;;11.30;;
52170;SDS011;38689;47.552;18.820;2023-05-27T01:52:25;14.73;;;10.80;;
52170;SDS011;38689;47.552;18.820;2023-05-27T01:54:52;13.70;;;10.75;;
52170;SDS011;38689;47.552;18.820;2023-05-27T01:57:18;19.08;;;11.63;;
52170;SDS011;38689;47.552;18.820;2023-05-27T01:59:45;16.52;;;11.15;;
52170;SDS011;38689;47.552;18.820;2023-05-27T02:02:11;17.35;;;11.30;;
52170;SDS011;38689;47.552;18.820;2023-05-27T02:04:37;14.15;;;10.35;;
52170;SDS011;38689;47.552;18.820;2023-05-27T02:07:03;15.93;;;11.35;;
52170;SDS011;38689;47.552;18.820;2023-05-27T02:09:29;14.40;;;10.85;;
52170;SDS011;38689;47.552;18.820;2023-05-27T02:11:55;17.62;;;10.88;;
52170;SDS011;38689;47.552;18.820;2023-05-27T02:14:21;15.95;;;11.60;;
52170;SDS011;38689;47.552;18.820;2023-05-27T02:16:47;14.50;;;11.05;;
52170;SDS011;38689;47.552;18.820;2023-05-27T02:19:15;15.35;;;10.90;;
52170;SDS011;38689;47.552;18.820;2023-05-27T02:21:41;16.62;;;11.95;;
52170;SDS011;38689;47.552;18.820;2023-05-27T02:24:07;16.50;;;11.05;;
52170;SDS011;38689;47.552;18.820;2023-05-27T02:26:33;16.77;;;11.70;;
52170;SDS011;38689;47.552;18.820;2023-05-27T02:29:00;16.40;;;11.82;;
52170;SDS011;38689;47.552;18.820;2023-05-27T02:31:26;16.95;;;12.02;;
52170;SDS011;38689;47.552;18.820;2023-05-27T02:33:52;17.35;;;12.98;;
52170;SDS011;38689;47.552;18.820;2023-05-27T02:36:18;18.52;;;12.57;;
52170;SDS011;38689;47.552;18.820;2023-05-27T02:38:46;19.90;;;11.85;;
52170;SDS011;38689;47.552;18.820;2023-05-27T02:41:12;15.57;;;11.88;;
52170;SDS011;38689;47.552;18.820;2023-05-27T02:43:38;16.60;;;12.23;;
52170;SDS011;38689;47.552;18.820;2023-05-27T02:46:04;17.37;;;12.25;;
52170;SDS011;38689;47.552;18.820;2023-05-27T02:48:30;18.30;;;13.45;;
52170;SDS011;38689;47.552;18.820;2023-05-27T02:50:56;16.58;;;12.57;;
52170;SDS011;38689;47.552;18.820;2023-05-27T02:53:22;16.17;;;12.55;;
52170;SDS011;38689;47.552;18.820;2023-05-27T02:55:49;16.02;;;12.18;;
52170;SDS011;38689;47.552;18.820;2023-05-27T02:58:15;16.60;;;12.25;;
52170;SDS011;38689;47.552;18.820;2023-05-27T03:00:42;22.08;;;13.48;;
52170;SDS011;38689;47.552;18.820;2023-05-27T03:03:08;17.45;;;12.65;;
52170;SDS011;38689;47.552;18.820;2023-05-27T03:05:35;17.37;;;13.07;;
52170;SDS011;38689;47.552;18.820;2023-05-27T03:08:01;18.58;;;12.65;;
52170;SDS011;38689;47.552;18.820;2023-05-27T03:10:28;17.83;;;12.70;;
52170;SDS011;38689;47.552;18.820;2023-05-27T03:12:54;16.27;;;12.25;;
52170;SDS011;38689;47.552;18.820;2023-05-27T03:15:20;16.35;;;12.35;;
52170;SDS011;38689;47.552;18.820;2023-05-27T03:17:47;17.62;;;12.48;;
52170;SDS011;38689;47.552;18.820;2023-05-27T03:20:13;17.20;;;12.63;;
52170;SDS011;38689;47.552;18.820;2023-05-27T03:22:39;18.42;;;12.55;;
52170;SDS011;38689;47.552;18.820;2023-05-27T03:25:05;17.12;;;12.00;;
52170;SDS011;38689;47.552;18.820;2023-05-27T03:27:32;17.02;;;12.57;;
52170;SDS011;38689;47.552;18.820;2023-05-27T03:29:58;18.00;;;12.70;;
52170;SDS011;38689;47.552;18.820;2023-05-27T03:32:24;19.02;;;12.68;;
52170;SDS011;38689;47.552;18.820;2023-05-27T03:34:50;16.42;;;12.00;;
52170;SDS011;38689;47.552;18.820;2023-05-27T03:37:16;16.55;;;12.10;;
52170;SDS011;38689;47.552;18.820;2023-05-27T03:39:42;17.73;;;11.43;;
52170;SDS011;38689;47.552;18.820;2023-05-27T03:42:09;15.57;;;10.93;;
52170;SDS011;38689;47.552;18.820;2023-05-27T03:44:35;17.05;;;11.50;;
52170;SDS011;38689;47.552;18.820;2023-05-27T03:47:01;16.58;;;11.80;;
52170;SDS011;38689;47.552;18.820;2023-05-27T03:49:28;14.68;;;11.27;;
52170;SDS011;38689;47.552;18.820;2023-05-27T03:51:54;16.90;;;10.65;;
52170;SDS011;38689;47.552;18.820;2023-05-27T03:54:20;14.80;;;11.02;;
52170;SDS011;38689;47.552;18.820;2023-05-27T03:56:46;16.02;;;10.77;;
52170;SDS011;38689;47.552;18.820;2023-05-27T03:59:12;15.80;;;11.02;;
52170;SDS011;38689;47.552;18.820;2023-05-27T04:01:38;17.70;;;10.80;;
52170;SDS011;38689;47.552;18.820;2023-05-27T04:04:05;15.98;;;11.00;;
52170;SDS011;38689;47.552;18.820;2023-05-27T04:06:31;15.68;;;10.45;;
52170;SDS011;38689;47.552;18.820;2023-05-27T04:08:57;16.00;;;10.57;;
52170;SDS011;38689;47.552;18.820;2023-05-27T04:11:25;14.95;;;10.75;;
52170;SDS011;38689;47.552;18.820;2023-05-27T04:13:52;17.10;;;10.70;;
52170;SDS011;38689;47.552;18.820;2023-05-27T04:16:18;15.20;;;10.43;;
52170;SDS011;38689;47.552;18.820;2023-05-27T04:18:44;18.17;;;11.70;;
52170;SDS011;38689;47.552;18.820;2023-05-27T04:21:16;17.58;;;10.98;;
52170;SDS011;38689;47.552;18.820;2023-05-27T04:23:43;14.23;;;10.70;;
52170;SDS011;38689;47.552;18.820;2023-05-27T04:26:09;16.37;;;10.60;;
52170;SDS011;38689;47.552;18.820;2023-05-27T04:28:35;16.70;;;10.98;;
52170;SDS011;38689;47.552;18.820;2023-05-27T04:31:01;13.18;;;9.90;;
52170;SDS011;38689;47.552;18.820;2023-05-27T04:33:27;16.25;;;10.07;;
52170;SDS011;38689;47.552;18.820;2023-05-27T04:35:53;13.77;;;9.95;;
52170;SDS011;38689;47.552;18.820;2023-05-27T04:38:24;15.18;;;10.15;;
52170;SDS011;38689;47.552;18.820;2023-05-27T04:40:51;13.30;;;9.85;;
52170;SDS011;38689;47.552;18.820;2023-05-27T04:43:20;14.20;;;10.10;;
52170;SDS011;38689;47.552;18.820;2023-05-27T04:45:47;15.43;;;9.93;;
52170;SDS011;38689;47.552;18.820;2023-05-27T04:48:13;14.07;;;9.73;;
52170;SDS011;38689;47.552;18.820;2023-05-27T04:50:41;15.07;;;9.60;;
52170;SDS011;38689;47.552;18.820;2023-05-27T04:53:07;14.95;;;9.15;;
52170;SDS011;38689;47.552;18.820;2023-05-27T04:55:34;14.70;;;9.50;;
52170;SDS011;38689;47.552;18.820;2023-05-27T04:58:00;13.68;;;9.57;;
52170;SDS011;38689;47.552;18.820;2023-05-27T05:00:30;14.57;;;9.77;;
52170;SDS011;38689;47.552;18.820;2023-05-27T05:03:15;13.95;;;9.52;;
52170;SDS011;38689;47.552;18.820;2023-05-27T05:05:49;15.18;;;9.25;;
52170;SDS011;38689;47.552;18.820;2023-05-27T05:08:17;14.40;;;9.35;;
52170;SDS011;38689;47.552;18.820;2023-05-27T05:10:48;14.15;;;9.40;;
52170;SDS011;38689;47.552;18.820;2023-05-27T05:13:14;13.48;;;9.05;;
52170;SDS011;38689;47.552;18.820;2023-05-27T05:15:41;12.02;;;9.10;;
52170;SDS011;38689;47.552;18.820;2023-05-27T05:18:09;13.30;;;9.35;;
52170;SDS011;38689;47.552;18.820;2023-05-27T05:20:36;12.73;;;8.60;;
52170;SDS011;38689;47.552;18.820;2023-05-27T05:23:02;13.05;;;8.63;;
52170;SDS011;38689;47.552;18.820;2023-05-27T05:25:29;12.63;;;8.55;;
52170;SDS011;38689;47.552;18.820;2023-05-27T05:28:01;12.57;;;8.45;;
52170;SDS011;38689;47.552;18.820;2023-05-27T05:30:27;15.57;;;8.95;;
52170;SDS011;38689;47.552;18.820;2023-05-27T05:32:53;12.32;;;8.50;;
52170;SDS011;38689;47.552;18.820;2023-05-27T05:35:19;12.10;;;8.40;;
52170;SDS011;38689;47.552;18.820;2023-05-27T05:37:45;16.83;;;9.10;;
52170;SDS011;38689;47.552;18.820;2023-05-27T05:40:11;13.82;;;8.45;;
52170;SDS011;38689;47.552;18.820;2023-05-27T05:42:37;12.65;;;7.93;;
52170;SDS011;38689;47.552;18.820;2023-05-27T05:45:03;14.05;;;7.90;;
52170;SDS011;38689;47.552;18.820;2023-05-27T05:47:30;12.75;;;8.32;;
52170;SDS011;38689;47.552;18.820;2023-05-27T05:49:57;11.77;;;7.53;;
52170;SDS011;38689;47.552;18.820;2023-05-27T05:52:23;10.55;;;7.25;;
52170;SDS011;38689;47.552;18.820;2023-05-27T05:54:49;12.35;;;7.70;;
52170;SDS011;38689;47.552;18.820;2023-05-27T05:57:15;14.00;;;8.40;;
52170;SDS011;38689;47.552;18.820;2023-05-27T05:59:41;11.55;;;7.70;;
52170;SDS011;38689;47.552;18.820;2023-05-27T06:02:07;10.50;;;7.30;;
52170;SDS011;38689;47.552;18.820;2023-05-27T06:04:33;12.75;;;6.72;;
52170;SDS011;38689;47.552;18.820;2023-05-27T06:06:59;13.85;;;6.95;;
52170;SDS011;38689;47.552;18.820;2023-05-27T06:09:25;10.25;;;6.60;;
52170;SDS011;38689;47.552;18.820;2023-05-27T06:11:52;11.35;;;7.40;;
52170;SDS011;38689;47.552;18.820;2023-05-27T06:14:18;9.50;;;6.65;;
52170;SDS011;38689;47.552;18.820;2023-05-27T06:16:44;9.63;;;6.78;;
52170;SDS011;38689;47.552;18.820;2023-05-27T06:19:10;10.18;;;6.70;;
52170;SDS011;38689;47.552;18.820;2023-05-27T06:21:36;8.80;;;6.30;;
52170;SDS011;38689;47.552;18.820;2023-05-27T06:24:02;8.23;;;5.12;;
52170;SDS011;38689;47.552;18.820;2023-05-27T06:26:28;9.40;;;5.53;;
52170;SDS011;38689;47.552;18.820;2023-05-27T06:28:54;7.85;;;4.85;;
52170;SDS011;38689;47.552;18.820;2023-05-27T06:31:20;8.40;;;5.12;;
52170;SDS011;38689;47.552;18.820;2023-05-27T06:33:46;8.70;;;5.15;;
52170;SDS011;38689;47.552;18.820;2023-05-27T06:36:12;8.98;;;5.00;;
52170;SDS011;38689;47.552;18.820;2023-05-27T06:38:38;9.10;;;5.03;;
52170;SDS011;38689;47.552;18.820;2023-05-27T06:41:05;7.57;;;4.37;;
52170;SDS011;38689;47.552;18.820;2023-05-27T06:43:31;9.38;;;4.90;;
52170;SDS011;38689;47.552;18.820;2023-05-27T06:45:57;8.75;;;4.50;;
52170;SDS011;38689;47.552;18.820;2023-05-27T06:48:23;7.22;;;4.68;;
52170;SDS011;38689;47.552;18.820;2023-05-27T06:50:49;6.95;;;4.35;;
52170;SDS011;38689;47.552;18.820;2023-05-27T06:53:15;8.75;;;4.00;;
52170;SDS011;38689;47.552;18.820;2023-05-27T06:55:41;9.02;;;4.40;;
52170;SDS011;38689;47.552;18.820;2023-05-27T06:58:07;7.70;;;4.07;;
52170;SDS011;38689;47.552;18.820;2023-05-27T07:00:33;8.02;;;4.10;;
52170;SDS011;38689;47.552;18.820;2023-05-27T07:02:59;7.00;;;3.92;;
52170;SDS011;38689;47.552;18.820;2023-05-27T07:05:26;9.18;;;4.37;;
52170;SDS011;38689;47.552;18.820;2023-05-27T07:07:52;6.95;;;4.07;;
52170;SDS011;38689;47.552;18.820;2023-05-27T07:10:18;6.28;;;4.03;;
52170;SDS011;38689;47.552;18.820;2023-05-27T07:12:45;8.57;;;4.30;;
52170;SDS011;38689;47.552;18.820;2023-05-27T07:15:11;6.85;;;3.75;;
52170;SDS011;38689;47.552;18.820;2023-05-27T07:17:37;7.37;;;4.10;;
52170;SDS011;38689;47.552;18.820;2023-05-27T07:20:03;7.47;;;3.75;;
52170;SDS011;38689;47.552;18.820;2023-05-27T07:22:30;7.53;;;4.03;;
52170;SDS011;38689;47.552;18.820;2023-05-27T07:24:56;7.65;;;3.85;;
52170;SDS011;38689;47.552;18.820;2023-05-27T07:27:23;7.90;;;4.10;;
52170;SDS011;38689;47.552;18.820;2023-05-27T07:29:49;7.93;;;3.97;;
52170;SDS011;38689;47.552;18.820;2023-05-27T07:32:15;6.05;;;3.62;;
52170;SDS011;38689;47.552;18.820;2023-05-27T07:34:41;8.23;;;3.80;;
52170;SDS011;38689;47.552;18.820;2023-05-27T07:37:07;7.43;;;3.75;;
52170;SDS011;38689;47.552;18.820;2023-05-27T07:39:33;5.28;;;3.62;;
52170;SDS011;38689;47.552;18.820;2023-05-27T07:41:59;8.15;;;3.97;;
52170;SDS011;38689;47.552;18.820;2023-05-27T07:44:25;9.93;;;3.87;;
52170;SDS011;38689;47.552;18.820;2023-05-27T07:46:53;5.93;;;3.85;;
52170;SDS011;38689;47.552;18.820;2023-05-27T07:49:19;7.40;;;3.72;;
52170;SDS011;38689;47.552;18.820;2023-05-27T07:51:46;7.50;;;5.00;;
52170;SDS011;38689;47.552;18.820;2023-05-27T07:54:12;7.57;;;5.00;;
52170;SDS011;38689;47.552;18.820;2023-05-27T07:56:38;8.55;;;5.15;;
52170;SDS011;38689;47.552;18.820;2023-05-27T07:59:04;8.43;;;5.60;;
52170;SDS011;38689;47.552;18.820;2023-05-27T08:01:30;10.85;;;5.10;;
52170;SDS011;38689;47.552;18.820;2023-05-27T08:03:58;11.18;;;5.12;;
52170;SDS011;38689;47.552;18.820;2023-05-27T08:06:25;8.20;;;5.28;;
52170;SDS011;38689;47.552;18.820;2023-05-27T08:08:51;9.00;;;5.28;;
52170;SDS011;38689;47.552;18.820;2023-05-27T08:11:17;10.40;;;5.32;;
52170;SDS011;38689;47.552;18.820;2023-05-27T08:13:44;7.57;;;5.20;;
52170;SDS011;38689;47.552;18.820;2023-05-27T08:16:10;8.88;;;4.97;;
52170;SDS011;38689;47.552;18.820;2023-05-27T08:18:36;7.18;;;5.12;;
52170;SDS011;38689;47.552;18.820;2023-05-27T08:21:02;9.15;;;5.55;;
52170;SDS011;38689;47.552;18.820;2023-05-27T08:23:30;7.95;;;4.75;;
52170;SDS011;38689;47.552;18.820;2023-05-27T08:25:56;8.13;;;4.70;;
52170;SDS011;38689;47.552;18.820;2023-05-27T08:28:22;9.45;;;4.68;;
52170;SDS011;38689;47.552;18.820;2023-05-27T08:30:49;7.90;;;4.55;;
52170;SDS011;38689;47.552;18.820;2023-05-27T08:33:15;6.32;;;4.47;;
52170;SDS011;38689;47.552;18.820;2023-05-27T08:35:41;6.75;;;3.90;;
52170;SDS011;38689;47.552;18.820;2023-05-27T08:38:07;7.80;;;4.50;;
52170;SDS011;38689;47.552;18.820;2023-05-27T08:40:33;8.15;;;4.30;;
52170;SDS011;38689;47.552;18.820;2023-05-27T08:42:59;7.93;;;4.18;;
52170;SDS011;38689;47.552;18.820;2023-05-27T08:45:25;7.93;;;4.10;;
52170;SDS011;38689;47.552;18.820;2023-05-27T08:47:53;8.45;;;4.28;;
52170;SDS011;38689;47.552;18.820;2023-05-27T08:50:19;7.10;;;3.90;;
52170;SDS011;38689;47.552;18.820;2023-05-27T08:52:46;7.53;;;3.70;;
52170;SDS011;38689;47.552;18.820;2023-05-27T08:55:14;5.90;;;3.67;;
52170;SDS011;38689;47.552;18.820;2023-05-27T08:57:43;9.93;;;4.00;;
52170;SDS011;38689;47.552;18.820;2023-05-27T09:00:12;7.40;;;3.80;;
52170;SDS011;38689;47.552;18.820;2023-05-27T09:02:40;6.70;;;3.70;;
52170;SDS011;38689;47.552;18.820;2023-05-27T09:05:07;6.37;;;3.58;;
52170;SDS011;38689;47.552;18.820;2023-05-27T09:07:38;6.55;;;3.55;;
52170;SDS011;38689;47.552;18.820;2023-05-27T09:10:04;7.43;;;4.05;;
52170;SDS011;38689;47.552;18.820;2023-05-27T09:12:34;6.80;;;4.03;;
52170;SDS011;38689;47.552;18.820;2023-05-27T09:15:02;6.35;;;3.58;;
52170;SDS011;38689;47.552;18.820;2023-05-27T09:17:29;6.93;;;3.95;;
52170;SDS011;38689;47.552;18.820;2023-05-27T09:19:55;8.70;;;4.00;;
52170;SDS011;38689;47.552;18.820;2023-05-27T09:22:22;6.95;;;3.65;;
52170;SDS011;38689;47.552;18.820;2023-05-27T09:24:54;7.55;;;3.80;;
52170;SDS011;38689;47.552;18.820;2023-05-27T09:27:24;7.35;;;3.65;;
52170;SDS011;38689;47.552;18.820;2023-05-27T09:32:26;5.80;;;3.70;;
52170;SDS011;38689;47.552;18.820;2023-05-27T09:37:20;7.62;;;4.05;;
52170;SDS011;38689;47.552;18.820;2023-05-27T09:39:51;5.80;;;3.80;;
52170;SDS011;38689;47.552;18.820;2023-05-27T09:42:17;8.43;;;4.75;;
52170;SDS011;38689;47.552;18.820;2023-05-27T09:44:45;7.05;;;3.92;;
52170;SDS011;38689;47.552;18.820;2023-05-27T09:47:13;6.05;;;3.95;;
52170;SDS011;38689;47.552;18.820;2023-05-27T09:49:42;6.93;;;3.92;;
52170;SDS011;38689;47.552;18.820;2023-05-27T09:52:11;6.35;;;4.05;;
52170;SDS011;38689;47.552;18.820;2023-05-27T09:54:40;7.28;;;4.00;;
52170;SDS011;38689;47.552;18.820;2023-05-27T09:57:06;6.43;;;3.85;;
52170;SDS011;38689;47.552;18.820;2023-05-27T09:59:33;5.30;;;3.40;;
52170;SDS011;38689;47.552;18.820;2023-05-27T10:02:00;7.75;;;3.80;;
52170;SDS011;38689;47.552;18.820;2023-05-27T10:04:27;5.82;;;3.45;;
52170;SDS011;38689;47.552;18.820;2023-05-27T10:06:54;8.38;;;3.78;;
52170;SDS011;38689;47.552;18.820;2023-05-27T10:09:20;6.93;;;4.00;;
52170;SDS011;38689;47.552;18.820;2023-05-27T10:11:46;7.78;;;3.83;;
52170;SDS011;38689;47.552;18.820;2023-05-27T10:14:12;6.68;;;3.90;;
52170;SDS011;38689;47.552;18.820;2023-05-27T10:16:50;9.60;;;3.35;;
52170;SDS011;38689;47.552;18.820;2023-05-27T10:19:17;7.37;;;3.80;;
52170;SDS011;38689;47.552;18.820;2023-05-27T10:21:43;5.78;;;3.78;;
52170;SDS011;38689;47.552;18.820;2023-05-27T10:24:10;7.68;;;3.62;;
52170;SDS011;38689;47.552;18.820;2023-05-27T10:26:40;5.85;;;3.72;;
52170;SDS011;38689;47.552;18.820;2023-05-27T10:29:09;4.35;;;2.67;;
52170;SDS011;38689;47.552;18.820;2023-05-27T10:31:48;6.20;;;2.78;;
52170;SDS011;38689;47.552;18.820;2023-05-27T10:34:16;6.25;;;3.35;;
52170;SDS011;38689;47.552;18.820;2023-05-27T10:36:46;6.07;;;2.87;;
52170;SDS011;38689;47.552;18.820;2023-05-27T10:39:16;7.72;;;3.03;;
52170;SDS011;38689;47.552;18.820;2023-05-27T10:41:43;5.37;;;2.92;;
52170;SDS011;38689;47.552;18.820;2023-05-27T10:44:24;4.72;;;2.75;;
52170;SDS011;38689;47.552;18.820;2023-05-27T10:47:12;7.47;;;3.17;;
52170;SDS011;38689;47.552;18.820;2023-05-27T10:49:39;8.43;;;3.30;;
52170;SDS011;38689;47.552;18.820;2023-05-27T10:52:06;6.87;;;3.25;;
52170;SDS011;38689;47.552;18.820;2023-05-27T10:54:36;6.18;;;3.00;;
52170;SDS011;38689;47.552;18.820;2023-05-27T10:57:03;4.35;;;2.90;;
52170;SDS011;38689;47.552;18.820;2023-05-27T10:59:35;7.05;;;2.90;;
52170;SDS011;38689;47.552;18.820;2023-05-27T11:02:04;6.05;;;2.85;;
52170;SDS011;38689;47.552;18.820;2023-05-27T11:04:37;7.85;;;3.30;;
52170;SDS011;38689;47.552;18.820;2023-05-27T11:07:03;5.25;;;3.20;;
52170;SDS011;38689;47.552;18.820;2023-05-27T11:09:30;5.65;;;3.15;;
52170;SDS011;38689;47.552;18.820;2023-05-27T11:12:00;7.68;;;3.15;;
52170;SDS011;38689;47.552;18.820;2023-05-27T11:14:28;7.45;;;3.22;;
52170;SDS011;38689;47.552;18.820;2023-05-27T11:16:54;7.50;;;3.33;;
52170;SDS011;38689;47.552;18.820;2023-05-27T11:19:21;6.72;;;3.22;;
52170;SDS011;38689;47.552;18.820;2023-05-27T11:21:47;7.25;;;2.95;;
52170;SDS011;38689;47.552;18.820;2023-05-27T11:24:14;5.00;;;2.83;;
52170;SDS011;38689;47.552;18.820;2023-05-27T11:26:44;8.85;;;3.20;;
52170;SDS011;38689;47.552;18.820;2023-05-27T11:29:14;6.97;;;3.47;;
52170;SDS011;38689;47.552;18.820;2023-05-27T11:31:40;6.57;;;3.80;;
52170;SDS011;38689;47.552;18.820;2023-05-27T11:34:13;7.20;;;3.90;;
52170;SDS011;38689;47.552;18.820;2023-05-27T11:36:40;6.97;;;4.05;;
52170;SDS011;38689;47.552;18.820;2023-05-27T11:39:10;7.62;;;4.40;;
52170;SDS011;38689;47.552;18.820;2023-05-27T11:44:15;8.68;;;4.28;;
52170;SDS011;38689;47.552;18.820;2023-05-27T11:46:42;6.82;;;4.72;;
52170;SDS011;38689;47.552;18.820;2023-05-27T11:49:10;6.78;;;4.43;;
52170;SDS011;38689;47.552;18.820;2023-05-27T11:51:37;10.77;;;5.03;;
52170;SDS011;38689;47.552;18.820;2023-05-27T11:54:07;8.38;;;4.37;;
52170;SDS011;38689;47.552;18.820;2023-05-27T11:56:40;7.00;;;4.40;;
52170;SDS011;38689;47.552;18.820;2023-05-27T11:59:07;6.90;;;4.70;;
52170;SDS011;38689;47.552;18.820;2023-05-27T12:01:34;6.35;;;4.10;;
52170;SDS011;38689;47.552;18.820;2023-05-27T12:04:00;13.90;;;5.07;;
52170;SDS011;38689;47.552;18.820;2023-05-27T12:06:26;6.68;;;4.90;;
52170;SDS011;38689;47.552;18.820;2023-05-27T12:08:52;8.13;;;5.22;;
52170;SDS011;38689;47.552;18.820;2023-05-27T12:11:18;6.93;;;5.20;;
52170;SDS011;38689;47.552;18.820;2023-05-27T12:13:44;7.68;;;5.72;;
52170;SDS011;38689;47.552;18.820;2023-05-27T12:16:10;7.22;;;5.22;;
52170;SDS011;38689;47.552;18.820;2023-05-27T12:18:36;9.15;;;5.80;;
52170;SDS011;38689;47.552;18.820;2023-05-27T12:21:04;9.02;;;5.75;;
52170;SDS011;38689;47.552;18.820;2023-05-27T12:23:30;10.95;;;5.75;;
52170;SDS011;38689;47.552;18.820;2023-05-27T12:25:56;9.80;;;5.53;;
52170;SDS011;38689;47.552;18.820;2023-05-27T12:28:22;8.40;;;5.68;;
52170;SDS011;38689;47.552;18.820;2023-05-27T12:30:48;8.82;;;5.72;;
52170;SDS011;38689;47.552;18.820;2023-05-27T12:33:14;7.72;;;5.60;;
52170;SDS011;38689;47.552;18.820;2023-05-27T12:35:41;8.57;;;5.50;;
52170;SDS011;38689;47.552;18.820;2023-05-27T12:38:07;7.80;;;5.65;;
52170;SDS011;38689;47.552;18.820;2023-05-27T12:40:33;8.05;;;5.80;;
52170;SDS011;38689;47.552;18.820;2023-05-27T12:42:59;9.20;;;5.87;;
52170;SDS011;38689;47.552;18.820;2023-05-27T12:45:25;10.13;;;5.68;;
52170;SDS011;38689;47.552;18.820;2023-05-27T12:47:52;8.65;;;5.72;;
52170;SDS011;38689;47.552;18.820;2023-05-27T12:50:18;9.95;;;5.80;;
52170;SDS011;38689;47.552;18.820;2023-05-27T12:52:45;8.75;;;5.18;;
52170;SDS011;38689;47.552;18.820;2023-05-27T12:55:15;7.75;;;5.53;;
52170;SDS011;38689;47.552;18.820;2023-05-27T12:57:46;7.50;;;5.25;;
52170;SDS011;38689;47.552;18.820;2023-05-27T13:00:13;10.57;;;5.20;;
52170;SDS011;38689;47.552;18.820;2023-05-27T13:02:39;9.38;;;5.45;;
52170;SDS011;38689;47.552;18.820;2023-05-27T13:05:06;9.38;;;5.78;;
52170;SDS011;38689;47.552;18.820;2023-05-27T13:07:33;9.48;;;5.28;;
52170;SDS011;38689;47.552;18.820;2023-05-27T13:10:00;9.00;;;5.35;;
52170;SDS011;38689;47.552;18.820;2023-05-27T13:12:28;8.93;;;5.25;;
52170;SDS011;38689;47.552;18.820;2023-05-27T13:14:55;7.87;;;5.40;;
52170;SDS011;38689;47.552;18.820;2023-05-27T13:17:21;7.55;;;5.50;;
52170;SDS011;38689;47.552;18.820;2023-05-27T13:19:47;8.02;;;5.37;;
52170;SDS011;38689;47.552;18.820;2023-05-27T13:22:13;7.80;;;5.47;;
52170;SDS011;38689;47.552;18.820;2023-05-27T13:24:40;7.87;;;5.35;;
52170;SDS011;38689;47.552;18.820;2023-05-27T13:27:07;8.13;;;5.65;;
52170;SDS011;38689;47.552;18.820;2023-05-27T13:29:36;8.60;;;5.68;;
52170;SDS011;38689;47.552;18.820;2023-05-27T13:32:02;7.22;;;4.97;;
52170;SDS011;38689;47.552;18.820;2023-05-27T13:34:29;8.80;;;5.60;;
52170;SDS011;38689;47.552;18.820;2023-05-27T13:36:55;8.82;;;5.60;;
52170;SDS011;38689;47.552;18.820;2023-05-27T13:39:22;8.90;;;5.55;;
52170;SDS011;38689;47.552;18.820;2023-05-27T13:41:48;9.82;;;5.72;;
52170;SDS011;38689;47.552;18.820;2023-05-27T13:44:14;9.70;;;6.00;;
52170;SDS011;38689;47.552;18.820;2023-05-27T13:46:40;7.47;;;5.15;;
52170;SDS011;38689;47.552;18.820;2023-05-27T13:49:06;8.38;;;5.72;;
52170;SDS011;38689;47.552;18.820;2023-05-27T13:51:33;10.75;;;5.62;;
52170;SDS011;38689;47.552;18.820;2023-05-27T13:53:59;8.38;;;5.47;;
52170;SDS011;38689;47.552;18.820;2023-05-27T13:56:25;10.18;;;5.97;;
52170;SDS011;38689;47.552;18.820;2023-05-27T13:58:51;7.53;;;5.30;;
52170;SDS011;38689;47.552;18.820;2023-05-27T14:01:20;7.75;;;5.57;;
52170;SDS011;38689;47.552;18.820;2023-05-27T14:03:47;7.80;;;5.20;;
52170;SDS011;38689;47.552;18.820;2023-05-27T14:06:13;8.73;;;5.53;;
52170;SDS011;38689;47.552;18.820;2023-05-27T14:08:39;9.05;;;5.37;;
52170;SDS011;38689;47.552;18.820;2023-05-27T14:11:05;8.75;;;5.70;;
52170;SDS011;38689;47.552;18.820;2023-05-27T14:13:32;9.20;;;5.57;;
52170;SDS011;38689;47.552;18.820;2023-05-27T14:15:58;7.85;;;5.47;;
52170;SDS011;38689;47.552;18.820;2023-05-27T14:18:24;9.95;;;5.60;;
52170;SDS011;38689;47.552;18.820;2023-05-27T14:20:50;8.05;;;5.30;;
52170;SDS011;38689;47.552;18.820;2023-05-27T14:23:16;7.68;;;5.18;;
52170;SDS011;38689;47.552;18.820;2023-05-27T14:25:43;7.85;;;5.37;;
52170;SDS011;38689;47.552;18.820;2023-05-27T14:28:09;9.88;;;5.37;;
52170;SDS011;38689;47.552;18.820;2023-05-27T14:30:35;8.88;;;5.30;;
52170;SDS011;38689;47.552;18.820;2023-05-27T14:33:05;8.45;;;5.40;;
52170;SDS011;38689;47.552;18.820;2023-05-27T14:35:34;9.00;;;5.73;;